createdAt,value
2019-03-10T00:00:47.365Z,3.93
2019-03-10T00:03:19.322Z,3.60
2019-03-10T00:05:51.416Z,4.43
2019-03-10T00:08:23.378Z,4.30
2019-03-10T00:10:55.654Z,3.27
2019-03-10T00:13:27.607Z,4.37
2019-03-10T00:15:59.577Z,4.67
2019-03-10T00:18:31.522Z,3.93
2019-03-10T00:21:03.515Z,3.83
2019-03-10T00:23:35.770Z,3.77
2019-03-10T00:26:07.751Z,4.50
2019-03-10T00:28:39.770Z,3.90
2019-03-10T00:31:11.710Z,3.90
2019-03-10T00:33:44.037Z,3.83
2019-03-10T00:36:16.050Z,4.40
2019-03-10T00:39:07.818Z,3.30
2019-03-10T00:42:03.756Z,3.90
2019-03-10T00:45:12.136Z,4.07
2019-03-10T00:48:03.371Z,4.03
2019-03-10T00:51:01.160Z,4.27
2019-03-10T00:53:33.122Z,3.73
2019-03-10T00:56:05.072Z,3.73
2019-03-10T00:58:37.027Z,4.13
2019-03-10T01:01:09.172Z,4.70
2019-03-10T01:03:42.312Z,3.67
2019-03-10T01:06:14.527Z,4.07
2019-03-10T01:08:46.856Z,3.40
2019-03-10T01:11:19.344Z,3.60
2019-03-10T01:13:51.308Z,3.73
2019-03-10T01:16:24.247Z,4.33
2019-03-10T01:18:57.279Z,3.80
2019-03-10T01:21:32.142Z,3.97
2019-03-10T01:24:04.221Z,4.37
2019-03-10T01:26:36.199Z,3.93
2019-03-10T01:29:08.161Z,3.70
2019-03-10T01:32:02.680Z,3.83
2019-03-10T01:34:45.178Z,4.37
2019-03-10T01:37:17.502Z,3.80
2019-03-10T01:39:49.898Z,4.07
2019-03-10T01:42:21.951Z,3.07
2019-03-10T01:44:53.926Z,4.63
2019-03-10T01:47:25.950Z,3.50
2019-03-10T01:49:58.083Z,4.40
2019-03-10T01:52:30.507Z,4.40
2019-03-10T01:55:02.752Z,4.47
2019-03-10T01:57:34.771Z,4.27
2019-03-10T02:00:11.936Z,3.20
2019-03-10T02:02:44.076Z,3.67
2019-03-10T02:05:16.059Z,4.20
2019-03-10T02:07:47.994Z,3.40
2019-03-10T02:10:20.022Z,3.70
2019-03-10T02:12:51.968Z,4.63
2019-03-10T02:15:23.925Z,4.67
2019-03-10T02:17:55.885Z,3.87
2019-03-10T02:20:28.116Z,5.20
2019-03-10T02:23:00.068Z,4.70
2019-03-10T02:25:32.213Z,4.03
2019-03-10T02:28:04.156Z,4.07
2019-03-10T02:30:36.124Z,4.73
2019-03-10T02:33:08.066Z,4.10
2019-03-10T02:35:40.055Z,3.83
2019-03-10T02:38:12.291Z,4.17
2019-03-10T02:40:44.269Z,4.00
2019-03-10T02:43:16.215Z,4.80
2019-03-10T02:45:48.179Z,4.37
2019-03-10T02:48:20.137Z,4.83
2019-03-10T02:50:52.104Z,4.27
2019-03-10T02:53:24.365Z,4.40
2019-03-10T02:55:56.314Z,4.07
2019-03-10T02:58:28.262Z,5.17
2019-03-10T03:01:00.213Z,4.43
2019-03-10T03:03:32.203Z,4.90
2019-03-10T03:06:04.156Z,4.40
2019-03-10T03:08:36.105Z,5.53
2019-03-10T03:11:08.069Z,5.80
2019-03-10T03:13:40.019Z,4.07
2019-03-10T03:16:12.007Z,5.00
2019-03-10T03:18:43.958Z,5.10
2019-03-10T03:21:15.920Z,4.37
2019-03-10T03:23:48.038Z,4.67
2019-03-10T03:26:19.994Z,4.50
2019-03-10T03:28:51.940Z,4.47
2019-03-10T03:31:24.230Z,4.70
2019-03-10T03:33:56.269Z,4.57
2019-03-10T03:36:31.840Z,4.53
2019-03-10T03:39:11.644Z,5.30
2019-03-10T03:41:43.611Z,5.00
2019-03-10T03:44:15.575Z,5.40
2019-03-10T03:46:47.573Z,4.10
2019-03-10T03:49:19.532Z,4.70
2019-03-10T03:51:51.828Z,5.77
2019-03-10T03:54:23.779Z,5.40
2019-03-10T03:56:55.766Z,5.37
2019-03-10T03:59:27.813Z,4.40
2019-03-10T04:02:01.401Z,4.20
2019-03-10T04:04:33.365Z,5.50
2019-03-10T04:07:05.334Z,4.73
2019-03-10T04:09:37.302Z,4.70
2019-03-10T04:12:09.271Z,4.63
2019-03-10T04:14:41.225Z,5.20
2019-03-10T04:17:13.254Z,5.60
2019-03-10T04:19:45.331Z,5.50
2019-03-10T04:22:17.272Z,4.33
2019-03-10T04:24:49.238Z,4.23
2019-03-10T04:27:21.458Z,4.17
2019-03-10T04:29:53.753Z,5.13
2019-03-10T04:32:26.004Z,4.23
2019-03-10T04:34:57.963Z,6.17
2019-03-10T04:37:29.978Z,4.80
2019-03-10T04:40:01.938Z,4.70
2019-03-10T04:42:33.924Z,5.20
2019-03-10T04:45:07.654Z,5.10
2019-03-10T04:47:39.646Z,4.63
2019-03-10T04:50:11.715Z,3.93
2019-03-10T04:52:43.695Z,4.97
2019-03-10T04:55:20.536Z,5.27
2019-03-10T04:58:03.459Z,4.23
2019-03-10T05:00:37.044Z,4.67
2019-03-10T05:03:09.007Z,4.17
2019-03-10T05:05:40.978Z,4.73
2019-03-10T05:08:12.973Z,4.63
2019-03-10T05:10:46.346Z,5.37
2019-03-10T05:13:18.620Z,4.67
2019-03-10T05:15:50.563Z,4.57
2019-03-10T05:18:22.847Z,4.67
2019-03-10T05:20:54.798Z,4.53
2019-03-10T05:23:41.137Z,4.03
2019-03-10T05:26:13.108Z,5.10
2019-03-10T05:28:45.974Z,4.60
2019-03-10T05:31:17.930Z,3.23
2019-03-10T05:33:49.903Z,2.83
2019-03-10T05:36:21.906Z,3.17
2019-03-10T05:38:53.864Z,3.00
2019-03-10T05:41:25.797Z,2.57
2019-03-10T05:43:58.845Z,2.17
2019-03-10T05:46:31.027Z,2.43
2019-03-10T05:49:03.024Z,2.00
2019-03-10T05:51:35.006Z,3.03
2019-03-10T05:54:06.950Z,2.60
2019-03-10T05:56:38.901Z,3.03
2019-03-10T05:59:10.869Z,2.43
2019-03-10T06:01:42.982Z,3.13
2019-03-10T06:04:15.415Z,3.67
2019-03-10T06:06:47.380Z,4.77
2019-03-10T06:09:19.357Z,4.30
2019-03-10T06:11:51.371Z,4.63
2019-03-10T06:14:23.335Z,4.20
2019-03-10T06:16:55.315Z,3.93
2019-03-10T06:19:27.359Z,3.80
2019-03-10T06:21:59.391Z,4.40
2019-03-10T06:24:31.364Z,4.40
2019-03-10T06:27:03.709Z,4.60
2019-03-10T06:29:35.652Z,4.00
2019-03-10T06:32:07.632Z,4.27
2019-03-10T06:34:39.719Z,4.37
2019-03-10T06:37:11.698Z,5.00
2019-03-10T06:39:43.729Z,4.47
2019-03-10T06:42:15.728Z,4.20
2019-03-10T06:44:47.899Z,4.13
2019-03-10T06:47:19.849Z,4.30
2019-03-10T06:49:51.815Z,4.27
2019-03-10T06:52:23.779Z,4.27
2019-03-10T06:54:55.745Z,4.87
2019-03-10T06:57:27.693Z,4.63
2019-03-10T06:59:59.656Z,4.00
2019-03-10T07:02:31.613Z,4.73
2019-03-10T07:05:03.626Z,4.00
2019-03-10T07:07:35.623Z,4.03
2019-03-10T07:10:16.205Z,5.50
2019-03-10T07:12:48.159Z,3.80
2019-03-10T07:15:20.193Z,5.13
2019-03-10T07:17:52.165Z,4.27
2019-03-10T07:20:24.135Z,4.47
2019-03-10T07:22:56.096Z,4.20
2019-03-10T07:25:28.078Z,4.30
2019-03-10T07:28:02.004Z,4.33
2019-03-10T07:30:41.759Z,4.53
2019-03-10T07:33:15.383Z,4.60
2019-03-10T07:35:57.878Z,4.83
2019-03-10T07:38:34.365Z,5.07
2019-03-10T07:41:23.803Z,3.87
2019-03-10T07:44:00.161Z,4.87
2019-03-10T07:46:33.778Z,3.97
2019-03-10T07:49:24.061Z,4.20
2019-03-10T07:52:20.105Z,4.30
2019-03-10T07:55:09.871Z,4.10
2019-03-10T07:57:43.883Z,4.83
2019-03-10T08:00:20.299Z,4.23
2019-03-10T08:02:57.015Z,3.97
2019-03-10T08:05:36.491Z,4.73
2019-03-10T08:08:10.101Z,4.43
2019-03-10T08:10:49.811Z,4.23
2019-03-10T08:13:26.119Z,4.27
2019-03-10T08:16:02.636Z,4.03
2019-03-10T08:18:41.779Z,3.77
2019-03-10T08:21:15.392Z,4.47
2019-03-10T08:23:54.662Z,4.30
2019-03-10T08:26:44.952Z,4.77
2019-03-10T08:29:24.514Z,3.57
2019-03-10T08:32:00.958Z,4.30
2019-03-10T08:34:47.419Z,4.60
2019-03-10T08:37:23.847Z,4.07
2019-03-10T08:40:00.427Z,3.80
2019-03-10T08:42:37.135Z,3.40
2019-03-10T08:45:13.961Z,3.47
2019-03-10T08:47:47.567Z,3.43
2019-03-10T08:50:33.257Z,4.63
2019-03-10T08:53:15.815Z,4.30
2019-03-10T08:55:49.497Z,3.17
2019-03-10T08:58:35.115Z,4.00
2019-03-10T09:01:23.638Z,3.70
2019-03-10T09:04:06.238Z,3.80
2019-03-10T09:06:44.633Z,3.43
2019-03-10T09:09:23.997Z,4.10
2019-03-10T09:11:57.609Z,3.57
2019-03-10T09:14:40.123Z,4.90
2019-03-10T09:17:13.794Z,3.80
2019-03-10T09:20:03.595Z,3.47
2019-03-10T09:22:42.928Z,3.63
2019-03-10T09:25:22.975Z,4.37
2019-03-10T09:27:59.486Z,3.90
2019-03-10T09:30:45.403Z,3.10
2019-03-10T09:33:28.080Z,4.30
2019-03-10T09:36:01.778Z,3.67
2019-03-10T09:38:38.709Z,3.40
2019-03-10T09:41:14.959Z,3.63
2019-03-10T09:43:48.630Z,3.60
2019-03-10T09:46:33.951Z,3.60
2019-03-10T09:49:10.203Z,3.43
2019-03-10T09:51:43.861Z,3.40
2019-03-10T09:54:23.457Z,3.47
2019-03-10T09:57:09.624Z,3.90
2019-03-10T09:59:46.132Z,3.73
2019-03-10T10:02:28.854Z,3.63
2019-03-10T10:05:05.563Z,3.87
2019-03-10T10:07:54.457Z,3.47
2019-03-10T10:10:28.045Z,3.70
2019-03-10T10:13:17.813Z,3.33
2019-03-10T10:16:03.428Z,3.27
2019-03-10T10:18:37.016Z,3.10
2019-03-10T10:21:16.494Z,3.07
2019-03-10T10:23:50.079Z,2.87
2019-03-10T10:26:32.638Z,3.00
2019-03-10T10:29:09.257Z,3.40
2019-03-10T10:31:51.628Z,4.03
2019-03-10T10:34:27.894Z,3.37
2019-03-10T10:37:01.574Z,3.03
2019-03-10T10:39:44.008Z,3.20
2019-03-10T10:42:26.599Z,3.73
2019-03-10T10:45:00.357Z,3.43
2019-03-10T10:47:36.674Z,3.00
2019-03-10T10:50:28.896Z,2.90
2019-03-10T10:53:05.449Z,3.47
2019-03-10T10:55:48.165Z,2.77
2019-03-10T10:58:39.717Z,3.07
2019-03-10T11:01:25.179Z,2.80
2019-03-10T11:03:58.761Z,2.70
2019-03-10T11:06:47.348Z,3.60
2019-03-10T11:09:20.969Z,2.73
2019-03-10T11:12:03.514Z,2.37
2019-03-10T11:14:42.815Z,2.70
2019-03-10T11:17:25.112Z,2.30
2019-03-10T11:20:07.611Z,2.73
2019-03-10T11:22:57.652Z,3.00
2019-03-10T11:25:34.598Z,3.27
2019-03-10T11:28:14.091Z,2.87
2019-03-10T11:30:47.768Z,3.37
2019-03-10T11:33:21.378Z,2.60
2019-03-10T11:36:13.448Z,3.90
2019-03-10T11:38:47.047Z,3.07
2019-03-10T11:41:20.919Z,3.10
2019-03-10T11:43:54.525Z,3.87
2019-03-10T11:46:28.383Z,2.77
2019-03-10T11:49:13.845Z,2.20
2019-03-10T11:52:05.593Z,2.50
2019-03-10T11:54:39.209Z,2.63
2019-03-10T11:57:15.420Z,2.50
2019-03-10T11:59:49.009Z,2.67
2019-03-10T12:02:28.587Z,3.27
2019-03-10T12:05:18.238Z,2.80
2019-03-10T12:07:54.574Z,2.73
2019-03-10T12:10:26.540Z,2.70
2019-03-10T12:12:59.109Z,2.63
2019-03-10T12:15:31.252Z,2.83
2019-03-10T12:18:03.276Z,2.30
2019-03-10T12:20:35.543Z,2.70
2019-03-10T12:23:07.490Z,2.53
2019-03-10T12:25:39.470Z,1.83
2019-03-10T12:28:11.430Z,2.27
2019-03-10T12:30:43.702Z,2.20
2019-03-10T12:33:15.668Z,2.53
2019-03-10T12:35:48.147Z,3.00
2019-03-10T12:38:20.153Z,2.00
2019-03-10T12:40:52.886Z,2.50
2019-03-10T12:43:24.857Z,2.00
2019-03-10T12:45:56.821Z,2.10
2019-03-10T12:48:28.795Z,2.40
2019-03-10T12:51:00.890Z,2.17
2019-03-10T12:53:32.858Z,2.40
2019-03-10T12:56:04.814Z,1.90
2019-03-10T12:58:36.828Z,2.30
2019-03-10T13:01:09.118Z,2.03
2019-03-10T13:03:41.171Z,2.87
2019-03-10T13:06:13.229Z,2.60
2019-03-10T13:08:45.225Z,2.27
2019-03-10T13:11:17.206Z,2.27
2019-03-10T13:13:49.199Z,2.33
2019-03-10T13:16:21.151Z,1.90
2019-03-10T13:18:53.114Z,3.13
2019-03-10T13:21:26.125Z,2.27
2019-03-10T13:23:58.474Z,2.50
2019-03-10T13:26:30.424Z,2.27
2019-03-10T13:29:02.417Z,2.50
2019-03-10T13:31:34.789Z,2.87
2019-03-10T13:34:07.096Z,2.73
2019-03-10T13:36:39.018Z,2.50
2019-03-10T13:39:11.037Z,2.20
2019-03-10T13:41:42.989Z,2.30
2019-03-10T13:44:15.008Z,3.27
2019-03-10T13:46:46.988Z,2.50
2019-03-10T13:49:19.034Z,2.20
2019-03-10T13:51:50.978Z,2.40
2019-03-10T13:54:22.937Z,2.00
2019-03-10T13:56:55.188Z,1.93
2019-03-10T13:59:27.116Z,2.40
2019-03-10T14:01:59.098Z,2.50
2019-03-10T14:04:31.052Z,2.40
2019-03-10T14:07:03.321Z,2.20
2019-03-10T14:09:35.260Z,2.33
2019-03-10T14:12:07.243Z,3.13
2019-03-10T14:14:39.367Z,2.80
2019-03-10T14:17:11.291Z,2.77
2019-03-10T14:19:43.566Z,2.73
2019-03-10T14:22:15.525Z,2.40
2019-03-10T14:24:47.489Z,2.43
2019-03-10T14:27:19.988Z,2.63
2019-03-10T14:29:51.905Z,2.10
2019-03-10T14:32:23.942Z,2.63
2019-03-10T14:34:55.885Z,2.80
2019-03-10T14:37:27.922Z,2.40
2019-03-10T14:39:59.892Z,2.70
2019-03-10T14:42:32.290Z,2.50
2019-03-10T14:45:09.429Z,2.97
2019-03-10T14:47:41.416Z,3.30
2019-03-10T14:50:18.963Z,2.63
2019-03-10T14:52:50.976Z,2.80
2019-03-10T14:55:23.855Z,3.30
2019-03-10T14:57:55.871Z,2.67
2019-03-10T15:00:32.192Z,4.37
2019-03-10T15:03:04.112Z,1.97
2019-03-10T15:05:36.097Z,2.83
2019-03-10T15:08:08.026Z,2.73
2019-03-10T15:10:40.006Z,3.40
2019-03-10T15:13:11.958Z,3.00
2019-03-10T15:15:43.933Z,3.40
2019-03-10T15:18:15.875Z,2.80
2019-03-10T15:20:47.888Z,3.20
2019-03-10T15:23:19.867Z,3.50
2019-03-10T15:25:51.835Z,2.60
2019-03-10T15:28:23.787Z,3.27
2019-03-10T15:30:55.722Z,3.40
2019-03-10T15:33:27.679Z,2.67
2019-03-10T15:36:00.097Z,3.50
2019-03-10T15:38:32.053Z,2.67
2019-03-10T15:41:03.997Z,3.10
2019-03-10T15:43:36.262Z,3.20
2019-03-10T15:46:08.535Z,3.00
2019-03-10T15:48:40.504Z,2.70
2019-03-10T15:51:12.468Z,2.80
2019-03-10T15:53:44.418Z,3.77
2019-03-10T15:56:16.381Z,3.60
2019-03-10T15:58:48.325Z,2.57
2019-03-10T16:01:20.417Z,2.60
2019-03-10T16:03:52.372Z,3.07
2019-03-10T16:06:24.399Z,2.87
2019-03-10T16:08:56.345Z,3.10
2019-03-10T16:11:28.305Z,2.73
2019-03-10T16:14:00.244Z,3.80
2019-03-10T16:16:32.230Z,2.67
2019-03-10T16:19:04.848Z,3.03
2019-03-10T16:21:36.809Z,3.30
2019-03-10T16:24:09.133Z,3.23
2019-03-10T16:26:41.069Z,3.37
2019-03-10T16:29:13.031Z,3.10
2019-03-10T16:31:44.973Z,2.73
2019-03-10T16:34:16.942Z,3.30
2019-03-10T16:36:48.878Z,2.93
2019-03-10T16:39:20.872Z,3.23
2019-03-10T16:41:52.815Z,3.23
2019-03-10T16:44:24.775Z,2.77
2019-03-10T16:47:00.553Z,3.23
2019-03-10T16:49:32.616Z,2.70
2019-03-10T16:52:05.059Z,2.93
2019-03-10T16:54:37.058Z,3.27
2019-03-10T16:57:09.091Z,3.63
2019-03-10T16:59:41.023Z,3.70
2019-03-10T17:02:13.498Z,4.23
2019-03-10T17:04:45.703Z,3.77
2019-03-10T17:07:17.657Z,2.87
2019-03-10T17:09:49.903Z,3.93
2019-03-10T17:12:21.844Z,3.47
2019-03-10T17:14:54.131Z,4.10
2019-03-10T17:17:26.094Z,2.80
2019-03-10T17:19:58.076Z,3.33
2019-03-10T17:22:30.018Z,3.23
2019-03-10T17:25:05.039Z,3.50
2019-03-10T17:27:37.062Z,3.17
2019-03-10T17:30:22.836Z,3.40
2019-03-10T17:32:54.771Z,3.53
2019-03-10T17:35:27.032Z,3.67
2019-03-10T17:37:59.224Z,2.50
2019-03-10T17:40:31.211Z,3.33
2019-03-10T17:43:03.180Z,3.03
2019-03-10T17:45:35.197Z,3.30
2019-03-10T17:48:07.154Z,3.03
2019-03-10T17:50:39.465Z,3.03
2019-03-10T17:53:11.465Z,3.40
2019-03-10T17:55:43.436Z,3.60
2019-03-10T17:58:15.360Z,2.90
2019-03-10T18:00:47.353Z,3.50
2019-03-10T18:03:19.302Z,2.87
2019-03-10T18:05:51.312Z,2.47
2019-03-10T18:08:23.283Z,3.50
2019-03-10T18:10:55.517Z,2.70
2019-03-10T18:13:27.485Z,2.63
2019-03-10T18:15:59.453Z,3.70
2019-03-10T18:18:31.649Z,3.20
2019-03-10T18:21:03.634Z,3.60
2019-03-10T18:23:35.924Z,3.13
2019-03-10T18:26:09.743Z,2.70
2019-03-10T18:28:41.998Z,3.10
2019-03-10T18:31:14.265Z,2.97
2019-03-10T18:33:46.243Z,2.53
2019-03-10T18:36:18.179Z,2.93
2019-03-10T18:38:50.463Z,2.80
2019-03-10T18:41:22.409Z,3.60
2019-03-10T18:43:54.374Z,3.07
2019-03-10T18:46:26.303Z,3.00
2019-03-10T18:48:58.281Z,2.73
2019-03-10T18:51:30.243Z,3.23
2019-03-10T18:54:02.197Z,2.60
2019-03-10T18:56:34.251Z,3.07
2019-03-10T18:59:06.198Z,2.40
2019-03-10T19:01:38.169Z,3.30
2019-03-10T19:04:10.292Z,3.10
2019-03-10T19:06:42.229Z,3.07
2019-03-10T19:09:16.410Z,3.03
2019-03-10T19:11:48.255Z,2.43
2019-03-10T19:14:20.218Z,2.93
2019-03-10T19:16:52.224Z,2.73
2019-03-10T19:19:24.186Z,3.00
2019-03-10T19:21:56.411Z,2.40
2019-03-10T19:24:28.365Z,2.60
2019-03-10T19:27:00.336Z,2.33
2019-03-10T19:29:32.284Z,2.53
2019-03-10T19:32:04.315Z,3.47
2019-03-10T19:34:36.264Z,2.93
2019-03-10T19:37:08.208Z,2.20
2019-03-10T19:39:40.171Z,3.03
2019-03-10T19:42:12.215Z,2.70
2019-03-10T19:44:44.172Z,2.60
2019-03-10T19:47:16.129Z,3.03
2019-03-10T19:49:48.078Z,2.97
2019-03-10T19:52:20.383Z,2.70
2019-03-10T19:54:52.329Z,3.77
2019-03-10T19:57:24.294Z,2.47
2019-03-10T19:59:56.586Z,3.10
2019-03-10T20:02:28.612Z,2.80
2019-03-10T20:05:00.570Z,2.73
2019-03-10T20:07:32.527Z,2.40
2019-03-10T20:10:16.284Z,2.57
2019-03-10T20:12:48.272Z,2.93
2019-03-10T20:15:25.574Z,2.67
2019-03-10T20:17:57.781Z,2.93
2019-03-10T20:20:33.391Z,2.67
2019-03-10T20:23:05.813Z,2.50
2019-03-10T20:25:38.016Z,2.80
2019-03-10T20:28:09.980Z,3.80
2019-03-10T20:30:41.949Z,2.93
2019-03-10T20:33:15.073Z,3.33
2019-03-10T20:35:47.050Z,2.90
2019-03-10T20:38:18.979Z,2.93
2019-03-10T20:40:50.955Z,3.10
2019-03-10T20:43:22.873Z,2.70
2019-03-10T20:45:54.842Z,2.53
2019-03-10T20:48:27.109Z,2.57
2019-03-10T20:50:59.055Z,2.33
2019-03-10T20:53:31.034Z,2.23
2019-03-10T20:56:02.993Z,2.83
2019-03-10T20:58:35.162Z,2.80
2019-03-10T21:01:07.179Z,2.80
2019-03-10T21:03:39.129Z,2.90
2019-03-10T21:06:11.099Z,2.57
2019-03-10T21:08:43.150Z,2.97
2019-03-10T21:11:15.542Z,2.30
2019-03-10T21:13:47.811Z,2.90
2019-03-10T21:16:19.752Z,3.20
2019-03-10T21:18:51.761Z,2.73
2019-03-10T21:21:23.783Z,2.47
2019-03-10T21:23:55.710Z,2.70
2019-03-10T21:26:28.073Z,2.80
2019-03-10T21:29:00.032Z,3.47
2019-03-10T21:31:31.999Z,2.67
2019-03-10T21:34:03.969Z,2.73
2019-03-10T21:36:37.643Z,2.93
2019-03-10T21:39:09.690Z,2.77
2019-03-10T21:41:42.170Z,3.10
2019-03-10T21:44:14.376Z,2.40
2019-03-10T21:46:46.359Z,2.67
2019-03-10T21:49:18.390Z,2.60
2019-03-10T21:51:50.525Z,2.50
2019-03-10T21:54:22.942Z,2.33
2019-03-10T21:56:54.921Z,2.47
2019-03-10T21:59:26.883Z,2.40
2019-03-10T22:01:59.103Z,2.93
2019-03-10T22:04:31.030Z,2.60
2019-03-10T22:07:03.026Z,2.80
2019-03-10T22:09:35.166Z,3.10
2019-03-10T22:12:07.187Z,2.53
2019-03-10T22:14:39.445Z,2.63
2019-03-10T22:17:11.406Z,3.40
2019-03-10T22:19:43.331Z,2.67
2019-03-10T22:22:15.349Z,2.60
2019-03-10T22:24:47.322Z,2.70
2019-03-10T22:27:19.278Z,3.10
2019-03-10T22:29:51.249Z,3.17
2019-03-10T22:32:23.206Z,2.10
2019-03-10T22:34:55.174Z,3.37
2019-03-10T22:37:27.127Z,2.57
2019-03-10T22:39:59.148Z,2.67
2019-03-10T22:42:31.107Z,2.90
2019-03-10T22:45:03.101Z,2.97
2019-03-10T22:47:35.047Z,3.20
2019-03-10T22:50:14.538Z,2.67
2019-03-10T22:52:46.561Z,2.90
2019-03-10T22:55:18.536Z,2.77
2019-03-10T22:57:50.452Z,2.90
2019-03-10T23:00:31.263Z,3.07
2019-03-10T23:03:03.692Z,3.37
2019-03-10T23:05:35.627Z,2.70
2019-03-10T23:08:07.872Z,3.00
2019-03-10T23:10:40.252Z,2.93
2019-03-10T23:13:12.452Z,2.93
2019-03-10T23:15:44.399Z,2.60
2019-03-10T23:18:16.368Z,2.53
2019-03-10T23:20:48.359Z,2.50
2019-03-10T23:23:20.324Z,2.73
2019-03-10T23:25:52.324Z,2.20
2019-03-10T23:28:24.743Z,2.10
2019-03-10T23:30:56.711Z,2.83
2019-03-10T23:33:28.675Z,2.37
2019-03-10T23:36:00.612Z,2.57
2019-03-10T23:38:32.603Z,2.50
2019-03-10T23:41:04.593Z,2.30
2019-03-10T23:43:36.556Z,2.63
2019-03-10T23:46:08.508Z,2.43
2019-03-10T23:48:40.466Z,2.50
2019-03-10T23:51:12.428Z,2.23
2019-03-10T23:53:44.345Z,2.40
2019-03-10T23:56:16.317Z,2.50
2019-03-10T23:58:48.596Z,2.30
